Time;durP1;ratioP1;P1;durP2;ratioP2;P2;SDS_P1;SDS_P2;PMS_P1;PMS_P2;Temp;Humidity;BMP_temperature;BMP_pressure;BME280_temperature;BME280_humidity;BME280_pressure;Samples;Min_cycle;Max_cycle;Signal;HPM_P1;HPM_P2
2022/12/05 00:01:50;;;;;;;85.17;36.60;;;;;;;-145.18;100.00;46715.09;4992700;28;20314;-76
2022/12/05 00:04:16;;;;;;;93.47;37.57;;;;;;;-145.18;100.00;46705.31;4992586;28;20194;-76
2022/12/05 00:06:42;;;;;;;86.90;36.93;;;;;;;-145.18;100.00;46699.47;4993014;28;20038;-76
2022/12/05 00:09:09;;;;;;;85.83;38.03;;;;;;;-145.18;100.00;46707.28;4992737;28;20426;-76
2022/12/05 00:11:37;;;;;;;83.63;37.23;;;;;;;-145.18;100.00;46707.28;4992493;28;20454;-76
2022/12/05 00:14:04;;;;;;;82.90;36.80;;;;;;;-145.18;100.00;46705.31;4992817;28;20272;-76
2022/12/05 00:16:31;;;;;;;85.67;35.23;;;;;;;-145.18;100.00;46703.38;4992685;28;20334;-76
2022/12/05 00:18:59;;;;;;;79.00;35.87;;;;;;;-145.18;100.00;46713.13;4991524;28;20307;-76
2022/12/05 00:21:27;;;;;;;91.03;37.63;;;;;;;-145.18;100.00;46705.31;4992384;28;20272;-76
2022/12/05 00:23:54;;;;;;;86.60;38.37;;;;;;;-145.18;100.00;46699.47;4992401;28;20264;-77
2022/12/05 00:26:20;;;;;;;85.33;37.17;;;;;;;-145.18;100.00;46693.59;4992055;28;20268;-77
2022/12/05 00:28:46;;;;;;;83.20;37.27;;;;;;;-145.18;100.00;46709.22;4992510;28;20287;-77
2022/12/05 00:31:15;;;;;;;86.83;37.60;;;;;;;-145.18;100.00;46701.41;4991936;28;20042;-77
2022/12/05 00:33:40;;;;;;;87.87;37.40;;;;;;;-145.18;100.00;46699.47;4991061;28;20482;-77
2022/12/05 00:36:12;;;;;;;88.87;37.17;;;;;;;-145.18;100.00;46695.56;4991839;28;20356;-77
2022/12/05 00:38:38;;;;;;;82.10;36.93;;;;;;;-145.18;100.00;46701.41;4992435;28;20033;-76
2022/12/05 00:41:05;;;;;;;87.07;39.20;;;;;;;-145.18;100.00;46693.59;4991837;28;20271;-76
2022/12/05 00:43:31;;;;;;;77.60;36.20;;;;;;;-145.18;100.00;46691.66;4992269;28;20306;-76
2022/12/05 00:46:07;;;;;;;88.00;37.47;;;;;;;-145.18;100.00;46693.59;4992143;28;20347;-76
2022/12/05 00:48:33;;;;;;;82.43;35.10;;;;;;;-145.18;100.00;46695.56;4992073;28;20038;-76
2022/12/05 00:51:05;;;;;;;81.03;36.13;;;;;;;-145.18;100.00;46695.56;4991976;28;20291;-76
2022/12/05 00:53:31;;;;;;;81.37;35.13;;;;;;;-145.18;100.00;46711.19;4992197;28;20026;-76
2022/12/05 00:56:04;;;;;;;84.47;38.70;;;;;;;-145.18;100.00;46697.50;4991907;28;20272;-76
2022/12/05 00:58:30;;;;;;;85.70;37.60;;;;;;;-145.18;100.00;46699.47;4991727;28;20057;-76
2022/12/05 01:00:55;;;;;;;88.50;38.23;;;;;;;-145.18;100.00;46699.47;4991951;28;20351;-76
2022/12/05 01:03:20;;;;;;;86.30;37.17;;;;;;;-145.18;100.00;46693.59;4990080;28;20288;-76
2022/12/05 01:05:46;;;;;;;86.53;36.67;;;;;;;-145.18;100.00;46695.56;4990569;28;20089;-76
2022/12/05 01:08:11;;;;;;;82.90;37.33;;;;;;;-145.18;100.00;46707.28;4991384;28;20475;-76
2022/12/05 01:10:36;;;;;;;87.07;37.40;;;;;;;-145.18;100.00;46715.09;4990904;28;20415;-76
2022/12/05 01:13:02;;;;;;;88.53;38.37;;;;;;;-145.18;100.00;46707.28;4991570;28;20038;-77
2022/12/05 01:15:27;;;;;;;81.47;35.00;;;;;;;-145.18;100.00;46705.31;4990348;28;20069;-77
2022/12/05 01:17:52;;;;;;;83.53;36.23;;;;;;;-145.18;100.00;46707.28;4991478;28;20030;-77
2022/12/05 01:20:18;;;;;;;85.37;35.70;;;;;;;-145.18;100.00;46703.38;4991315;28;20053;-77
2022/12/05 01:22:43;;;;;;;77.03;34.03;;;;;;;-145.18;100.00;46705.31;4991471;28;20043;-77
2022/12/05 01:25:09;;;;;;;84.17;36.90;;;;;;;-145.18;100.00;46703.38;4991171;28;20057;-77
2022/12/05 01:27:34;;;;;;;82.90;35.97;;;;;;;-145.18;100.00;46697.50;4991311;28;20467;-77
2022/12/05 01:30:00;;;;;;;82.73;36.93;;;;;;;-145.18;100.00;46703.38;4991577;28;20034;-77
2022/12/05 01:32:25;;;;;;;83.03;36.33;;;;;;;-145.18;100.00;46707.28;4989544;28;20084;-77
2022/12/05 01:34:50;;;;;;;89.07;38.00;;;;;;;-145.18;100.00;46709.22;4991017;28;20069;-76
2022/12/05 01:37:16;;;;;;;87.40;37.23;;;;;;;-145.18;100.00;46705.31;4990957;28;20495;-76
2022/12/05 01:39:41;;;;;;;75.33;35.33;;;;;;;-145.18;100.00;46711.19;4991411;28;20038;-77
2022/12/05 01:42:07;;;;;;;83.90;37.13;;;;;;;-145.18;100.00;46711.19;4990759;28;20042;-77
2022/12/05 01:44:32;;;;;;;83.63;37.00;;;;;;;-145.18;100.00;46715.09;4991222;28;20034;-77
2022/12/05 01:46:58;;;;;;;85.63;36.10;;;;;;;-145.18;100.00;46713.13;4990961;28;20076;-77
2022/12/05 01:49:32;;;;;;;81.17;37.70;;;;;;;-145.18;100.00;46705.31;4990658;28;20046;-77
2022/12/05 01:52:10;;;;;;;84.87;36.87;;;;;;;-145.18;100.00;46705.31;4991088;28;20034;-77
2022/12/05 01:54:37;;;;;;;83.83;36.63;;;;;;;-145.18;100.00;46707.28;4991123;28;20264;-77
2022/12/05 01:57:07;;;;;;;84.30;37.80;;;;;;;-145.18;100.00;46713.13;4990970;28;20723;-76
2022/12/05 01:59:37;;;;;;;81.43;37.30;;;;;;;-145.18;100.00;46709.22;4991053;28;20263;-76
2022/12/05 02:02:03;;;;;;;78.37;36.03;;;;;;;-145.18;100.00;46705.31;4990536;28;20276;-76
2022/12/05 02:04:29;;;;;;;71.00;33.90;;;;;;;-145.18;100.00;46703.38;4990557;28;20657;-76
2022/12/05 02:06:55;;;;;;;78.03;35.00;;;;;;;-145.18;100.00;46711.19;4990761;28;20288;-76
2022/12/05 02:09:22;;;;;;;80.60;36.00;;;;;;;-145.18;100.00;46697.50;4990714;28;20347;-76
2022/12/05 02:11:57;;;;;;;82.17;36.80;;;;;;;-145.18;100.00;46707.28;4990302;28;20071;-76
2022/12/05 02:14:34;;;;;;;81.97;35.17;;;;;;;-145.18;100.00;46699.47;4990847;28;20322;-76
2022/12/05 02:17:05;;;;;;;80.33;35.27;;;;;;;-145.18;100.00;46707.28;4990683;28;20022;-76
2022/12/05 02:19:55;;;;;;;77.77;33.73;;;;;;;-145.18;100.00;46713.13;4989690;28;20319;-76
2022/12/05 02:22:47;;;;;;;83.17;35.30;;;;;;;-145.18;100.00;46701.41;4993112;28;20271;-76
2022/12/05 02:25:24;;;;;;;80.20;33.37;;;;;;;-145.18;100.00;46701.41;4993042;28;20666;-76
2022/12/05 02:28:26;;;;;;;87.00;35.83;;;;;;;-145.18;100.00;46707.28;4993276;28;20960;-77
2022/12/05 02:30:56;;;;;;;76.60;33.50;;;;;;;-145.18;100.00;46705.31;4994445;28;20291;-76
2022/12/05 02:33:37;;;;;;;75.67;34.17;;;;;;;-145.18;100.00;46703.38;4992843;28;20278;-76
2022/12/05 02:36:10;;;;;;;78.17;36.47;;;;;;;-145.18;100.00;46711.19;4994828;28;20275;-76
2022/12/05 02:38:44;;;;;;;75.93;36.17;;;;;;;-145.18;100.00;46707.28;4992834;28;20346;-77
2022/12/05 02:41:38;;;;;;;74.53;33.43;;;;;;;-145.18;100.00;46705.31;4994346;28;20624;-76
2022/12/05 02:44:25;;;;;;;74.83;33.67;;;;;;;-145.18;100.00;46701.41;4994337;28;20268;-77
2022/12/05 02:46:52;;;;;;;75.53;33.83;;;;;;;-145.18;100.00;46705.31;4993956;28;20280;-76
2022/12/05 02:49:23;;;;;;;78.17;34.43;;;;;;;-145.18;100.00;46709.22;4994093;28;20275;-76
2022/12/05 02:51:54;;;;;;;82.90;35.40;;;;;;;-145.18;100.00;46707.28;4993955;28;20349;-76
2022/12/05 02:54:32;;;;;;;76.73;34.80;;;;;;;-145.18;100.00;46711.19;4994033;28;20259;-76
2022/12/05 02:56:59;;;;;;;80.50;34.23;;;;;;;-145.18;100.00;46701.41;4994125;28;20270;-76
2022/12/05 02:59:25;;;;;;;84.80;36.97;;;;;;;-145.18;100.00;46711.19;4993990;28;20274;-76
2022/12/05 03:01:50;;;;;;;80.37;34.73;;;;;;;-145.18;100.00;46709.22;5272830;22;20303;-77
2022/12/05 03:04:18;;;;;;;79.03;33.47;;;;;;;-145.18;100.00;46709.22;5013024;28;20064;-78
2022/12/05 03:06:54;;;;;;;83.63;37.47;;;;;;;-145.18;100.00;46713.13;5030055;28;20026;-78
2022/12/05 03:09:29;;;;;;;78.47;34.22;;;;;;;-145.18;100.00;46699.47;5033482;28;20274;-78
2022/12/05 03:12:17;;;;;;;76.40;34.67;;;;;;;-145.18;100.00;46707.28;5032882;28;20426;-78
2022/12/05 03:14:50;;;;;;;80.23;35.90;;;;;;;-145.18;100.00;46709.22;5033102;28;20037;-78
2022/12/05 03:17:22;;;;;;;75.27;36.23;;;;;;;-145.18;100.00;46707.28;5033200;28;20258;-78
2022/12/05 03:20:18;;;;;;;88.50;36.53;;;;;;;-145.18;100.00;46715.09;5033001;28;20817;-77
2022/12/05 03:22:57;;;;;;;76.03;35.00;;;;;;;-145.18;100.00;46699.47;5033020;28;20299;-77
2022/12/05 03:25:28;;;;;;;85.80;36.60;;;;;;;-145.18;100.00;46707.28;5033241;28;20026;-77
2022/12/05 03:28:05;;;;;;;77.67;34.97;;;;;;;-145.18;100.00;46707.28;5032616;28;20255;-77
2022/12/05 03:30:36;;;;;;;74.63;35.40;;;;;;;-145.18;100.00;46691.66;5033109;28;20299;-78
2022/12/05 03:33:11;;;;;;;83.70;38.00;;;;;;;-145.18;100.00;46695.56;5032472;28;21135;-77
2022/12/05 03:35:50;;;;;;;77.40;35.90;;;;;;;-145.18;100.00;46699.47;5032793;28;20278;-77
2022/12/05 03:38:25;;;;;;;90.70;38.53;;;;;;;-145.18;100.00;46691.66;5032722;28;20033;-77
2022/12/05 03:41:06;;;;;;;84.28;36.28;;;;;;;-145.18;100.00;46697.50;5032440;28;20258;-78
2022/12/05 03:43:41;;;;;;;85.07;37.03;;;;;;;-145.18;100.00;46699.47;5032821;28;20059;-78
2022/12/05 03:46:55;;;;;;;87.70;37.17;;;;;;;-145.18;100.00;46699.47;5032923;28;20266;-77
2022/12/05 03:49:29;;;;;;;86.57;37.67;;;;;;;-145.18;100.00;46695.56;4957854;28;20124;-77
2022/12/05 03:52:00;;;;;;;81.43;36.73;;;;;;;-145.18;100.00;46707.28;5031966;28;20302;-77
2022/12/05 03:54:31;;;;;;;81.57;36.60;;;;;;;-145.18;100.00;46693.59;5032845;28;20259;-77
2022/12/05 03:57:09;;;;;;;77.97;35.77;;;;;;;-145.18;100.00;46695.56;5032080;28;20271;-77
2022/12/05 03:59:38;;;;;;;85.30;38.17;;;;;;;-145.18;100.00;46689.69;5032519;28;20277;-78
2022/12/05 04:02:12;;;;;;;81.40;35.53;;;;;;;-145.18;100.00;46697.50;5042008;28;20273;-78
2022/12/05 04:04:47;;;;;;;81.80;37.20;;;;;;;-145.18;100.00;46695.56;5052110;28;20673;-78
2022/12/05 04:07:16;;;;;;;80.57;35.13;;;;;;;-145.18;100.00;46691.66;5051990;28;20310;-78
2022/12/05 04:09:48;;;;;;;82.40;36.83;;;;;;;-145.18;100.00;46691.66;5051954;28;20301;-78
2022/12/05 04:12:19;;;;;;;78.73;36.63;;;;;;;-145.18;100.00;46685.78;5051940;28;20273;-78
2022/12/05 04:14:56;;;;;;;79.00;35.80;;;;;;;-145.18;100.00;46703.38;5033860;28;20270;-78
2022/12/05 04:17:35;;;;;;;79.87;37.53;;;;;;;-145.18;100.00;46695.56;5051802;28;20812;-78
2022/12/05 04:22:51;;;;;;;77.50;34.23;;;;;;;-145.18;100.00;46691.66;5051936;28;20273;-78
2022/12/05 04:25:33;;;;;;;74.37;34.30;;;;;;;-145.18;100.00;46693.59;5051940;28;20675;-77
2022/12/05 04:28:10;;;;;;;74.73;34.53;;;;;;;-145.18;100.00;46689.69;5033621;28;20029;-77
2022/12/05 04:30:52;;;;;;;75.67;35.13;;;;;;;-145.18;100.00;46699.47;5031754;28;20686;-78
2022/12/05 04:33:35;;;;;;;79.20;35.53;;;;;;;-145.18;100.00;46689.69;5024621;28;20273;-78
2022/12/05 04:36:10;;;;;;;86.73;34.80;;;;;;;-145.18;100.00;46687.75;5031536;28;20263;-78
2022/12/05 04:38:54;;;;;;;79.13;35.78;;;;;;;-145.18;100.00;46691.66;5031491;28;20266;-78
2022/12/05 04:41:35;;;;;;;78.77;34.23;;;;;;;-145.18;100.00;46691.66;5031845;28;20034;-77
2022/12/05 04:44:06;;;;;;;79.50;35.53;;;;;;;-145.18;100.00;46685.78;5030550;28;20325;-78
2022/12/05 04:46:34;;;;;;;72.53;34.63;;;;;;;-145.18;100.00;46691.66;5031771;28;20258;-78
2022/12/05 04:49:02;;;;;;;84.33;36.50;;;;;;;-145.18;100.00;46683.84;5031344;28;20258;-78
2022/12/05 04:51:33;;;;;;;81.77;35.40;;;;;;;-145.18;100.00;46685.78;5031429;28;20341;-78
2022/12/05 04:54:03;;;;;;;77.97;36.17;;;;;;;-145.18;100.00;46687.75;5030833;28;20294;-78
2022/12/05 04:56:33;;;;;;;84.40;36.37;;;;;;;-145.18;100.00;46695.56;5031710;28;20317;-77
2022/12/05 04:58:59;;;;;;;79.17;35.57;;;;;;;-145.18;100.00;46697.50;5030656;28;20262;-78
2022/12/05 05:01:32;;;;;;;82.27;36.70;;;;;;;-145.18;100.00;46685.78;5017607;28;20824;-77
2022/12/05 05:04:20;;;;;;;84.87;36.83;;;;;;;-145.18;100.00;46691.66;5011515;28;20059;-77
2022/12/05 05:06:45;;;;;;;84.37;35.73;;;;;;;-145.18;100.00;46687.75;5030499;28;20302;-77
2022/12/05 05:09:11;;;;;;;77.00;35.37;;;;;;;-145.18;100.00;46685.78;5031076;28;20297;-77
2022/12/05 05:11:37;;;;;;;86.77;35.53;;;;;;;-145.18;100.00;46687.75;5031048;28;20112;-77
2022/12/05 05:14:03;;;;;;;76.60;35.87;;;;;;;-145.18;100.00;46687.75;5030702;28;20061;-77
2022/12/05 05:16:37;;;;;;;79.83;35.43;;;;;;;-145.18;100.00;46695.56;5031185;28;20811;-77
2022/12/05 05:19:03;;;;;;;80.60;34.33;;;;;;;-145.18;100.00;46693.59;5030700;28;20540;-77
2022/12/05 05:21:30;;;;;;;73.57;34.07;;;;;;;-145.18;100.00;46689.69;5013213;28;20358;-77
2022/12/05 05:23:56;;;;;;;79.50;35.47;;;;;;;-145.18;100.00;46683.84;5030632;28;20654;-77
2022/12/05 05:26:23;;;;;;;85.63;35.37;;;;;;;-145.18;100.00;46685.78;5031098;28;20263;-77
2022/12/05 05:28:49;;;;;;;74.07;34.03;;;;;;;-145.18;100.00;46685.78;5030368;28;20267;-77
2022/12/05 05:31:18;;;;;;;77.97;32.87;;;;;;;-145.18;100.00;46695.56;5030707;28;20306;-77
2022/12/05 05:33:43;;;;;;;80.60;34.73;;;;;;;-145.18;100.00;46687.75;5030274;28;20355;-77
2022/12/05 05:36:11;;;;;;;75.23;33.77;;;;;;;-145.18;100.00;46689.69;5012706;28;20362;-77
2022/12/05 05:38:38;;;;;;;81.67;35.93;;;;;;;-145.18;100.00;46695.56;5030586;28;20029;-77
2022/12/05 05:41:04;;;;;;;74.33;33.67;;;;;;;-145.18;100.00;46693.59;5030946;28;20727;-77
2022/12/05 05:43:30;;;;;;;73.27;33.43;;;;;;;-145.18;100.00;46679.94;5030358;28;20302;-77
2022/12/05 05:45:56;;;;;;;73.97;32.87;;;;;;;-145.18;100.00;46689.69;5030290;28;20684;-77
2022/12/05 05:48:22;;;;;;;69.10;31.63;;;;;;;-145.18;100.00;46693.59;5012822;28;20394;-77
2022/12/05 05:50:47;;;;;;;72.30;32.53;;;;;;;-145.18;100.00;46677.97;5030210;28;20045;-77
2022/12/05 05:53:12;;;;;;;75.63;32.43;;;;;;;-145.18;100.00;46691.66;5030498;28;20033;-77
2022/12/05 05:55:39;;;;;;;76.87;34.20;;;;;;;-145.18;100.00;46683.84;5030398;28;20105;-77
2022/12/05 05:58:05;;;;;;;78.87;34.77;;;;;;;-145.18;100.00;46681.88;5030075;28;20036;-77
2022/12/05 06:00:30;;;;;;;68.77;32.37;;;;;;;-145.18;100.00;46679.94;5010847;28;20279;-77
2022/12/05 06:02:55;;;;;;;69.33;32.33;;;;;;;-145.18;100.00;46687.75;5013257;28;20042;-77
2022/12/05 06:05:21;;;;;;;63.37;30.40;;;;;;;-145.18;100.00;46685.78;5026219;28;20042;-77
2022/12/05 06:07:46;;;;;;;74.27;33.93;;;;;;;-145.18;100.00;46685.78;5022924;28;20155;-77
2022/12/05 06:10:12;;;;;;;69.27;31.83;;;;;;;-145.18;100.00;46679.94;5023808;28;20116;-77
2022/12/05 06:12:37;;;;;;;64.70;32.00;;;;;;;-145.18;100.00;46681.88;5019661;28;20482;-77
2022/12/05 06:15:03;;;;;;;70.63;32.50;;;;;;;-145.18;100.00;46683.84;5018244;28;20576;-76
2022/12/05 06:17:29;;;;;;;68.57;31.50;;;;;;;-145.18;100.00;46683.84;5019782;28;20154;-76
2022/12/05 06:19:54;;;;;;;69.90;31.30;;;;;;;-145.18;100.00;46693.59;5000991;28;20088;-77
2022/12/05 06:22:20;;;;;;;68.17;31.90;;;;;;;-145.18;100.00;46683.84;5012863;28;20742;-76
2022/12/05 06:24:45;;;;;;;66.37;31.87;;;;;;;-145.18;100.00;46683.84;5019756;28;20079;-76
2022/12/05 06:27:11;;;;;;;74.00;31.97;;;;;;;-145.18;100.00;46683.84;5017358;28;20083;-76
2022/12/05 06:29:36;;;;;;;68.27;31.00;;;;;;;-145.18;100.00;46681.88;5015097;28;20034;-76
2022/12/05 06:32:01;;;;;;;69.07;30.20;;;;;;;-145.18;100.00;46681.88;5010007;28;20030;-76
2022/12/05 06:34:27;;;;;;;73.63;31.27;;;;;;;-145.18;100.00;46681.88;5010821;28;20045;-76
2022/12/05 06:36:52;;;;;;;67.80;32.43;;;;;;;-145.18;100.00;46681.88;5010583;28;20058;-76
2022/12/05 06:39:18;;;;;;;65.37;30.30;;;;;;;-145.18;100.00;46683.84;5016356;28;20026;-76
2022/12/05 06:41:43;;;;;;;68.73;31.43;;;;;;;-145.18;100.00;46681.88;5020587;28;20512;-75
2022/12/05 06:44:08;;;;;;;64.13;30.50;;;;;;;-145.18;100.00;46681.88;5016102;28;20034;-75
2022/12/05 06:46:34;;;;;;;66.10;29.97;;;;;;;-145.18;100.00;46683.84;5010878;28;20444;-75
2022/12/05 06:48:59;;;;;;;63.67;29.40;;;;;;;-145.18;100.00;46683.84;5010728;28;20042;-75
2022/12/05 06:51:25;;;;;;;65.10;30.63;;;;;;;-145.18;100.00;46681.88;4995681;28;20414;-75
2022/12/05 06:53:50;;;;;;;64.93;30.37;;;;;;;-145.18;100.00;46681.88;5010547;28;20042;-75
2022/12/05 06:56:18;;;;;;;61.57;30.03;;;;;;;-145.18;100.00;46683.84;5026023;28;20034;-75
2022/12/05 06:58:46;;;;;;;62.37;30.47;;;;;;;-145.18;100.00;46685.78;5023564;28;20039;-75
2022/12/05 07:04:01;;;;;;;65.60;31.37;;;;;;;-145.18;100.00;46679.94;5029750;28;20785;-75
2022/12/05 07:06:27;;;;;;;68.03;31.80;;;;;;;-145.18;100.00;46685.78;5030582;28;20271;-75
2022/12/05 07:08:53;;;;;;;65.87;30.67;;;;;;;-145.18;100.00;46677.97;5032999;28;20031;-75
2022/12/05 07:11:19;;;;;;;58.23;29.23;;;;;;;-145.18;100.00;46683.84;5034215;28;20381;-75
2022/12/05 07:13:44;;;;;;;64.67;29.97;;;;;;;-145.18;100.00;46687.75;5033748;28;20113;-75
2022/12/05 07:16:09;;;;;;;66.37;29.70;;;;;;;-145.18;100.00;46693.59;5033751;28;20140;-75
2022/12/05 07:18:35;;;;;;;61.77;30.40;;;;;;;-145.18;100.00;46685.78;4999670;28;20026;-75
2022/12/05 07:21:06;;;;;;;67.17;31.47;;;;;;;-145.18;100.00;46683.84;5033545;28;20032;-75
2022/12/05 07:23:31;;;;;;;60.00;29.33;;;;;;;-145.18;100.00;46677.97;5016017;28;20030;-75
2022/12/05 07:25:57;;;;;;;61.97;30.10;;;;;;;-145.18;100.00;46695.56;5027990;28;20263;-75
2022/12/05 07:28:23;;;;;;;63.53;30.60;;;;;;;-145.18;100.00;46679.94;5024463;28;20537;-75
2022/12/05 07:30:58;;;;;;;63.10;30.80;;;;;;;-145.18;100.00;46681.88;5000990;28;20025;-76
2022/12/05 07:33:23;;;;;;;61.30;29.13;;;;;;;-145.18;100.00;46685.78;5013490;28;20338;-76
2022/12/05 07:35:48;;;;;;;60.43;30.03;;;;;;;-145.18;100.00;46683.84;5017939;28;20038;-75
2022/12/05 07:38:14;;;;;;;62.03;29.50;;;;;;;-145.18;100.00;46685.78;5003342;28;20077;-75
2022/12/05 07:40:39;;;;;;;62.47;28.93;;;;;;;-145.18;100.00;46681.88;5018674;28;20061;-75
2022/12/05 07:43:05;;;;;;;59.23;29.30;;;;;;;-145.18;100.00;46685.78;5030132;28;20029;-75
2022/12/05 07:45:32;;;;;;;62.43;27.97;;;;;;;-145.18;100.00;46679.94;5033119;28;20063;-75
2022/12/05 07:47:57;;;;;;;60.23;29.13;;;;;;;-145.18;100.00;46685.78;5014779;28;20022;-75
2022/12/05 07:50:22;;;;;;;64.67;31.43;;;;;;;-145.18;100.00;46685.78;5033001;28;20353;-75
2022/12/05 07:52:48;;;;;;;63.13;29.93;;;;;;;-145.18;100.00;46683.84;5015206;28;20034;-75
2022/12/05 07:55:13;;;;;;;63.00;29.13;;;;;;;-145.18;100.00;46695.56;5033302;28;20053;-75
2022/12/05 07:57:38;;;;;;;66.43;30.73;;;;;;;-145.18;100.00;46679.94;5032654;28;20025;-75
2022/12/05 08:00:05;;;;;;;60.93;30.57;;;;;;;-145.18;100.00;46693.59;5014822;28;20108;-75
2022/12/05 08:02:31;;;;;;;60.27;29.57;;;;;;;-145.18;100.00;46685.78;5015261;28;20050;-76
2022/12/05 08:04:56;;;;;;;54.50;28.30;;;;;;;-145.18;100.00;46687.75;5031996;28;20298;-75
2022/12/05 08:07:21;;;;;;;54.93;27.90;;;;;;;-145.18;100.00;46683.84;5015061;28;20037;-75
2022/12/05 08:09:47;;;;;;;61.27;29.57;;;;;;;-145.18;100.00;46676.03;5032189;28;20057;-75
2022/12/05 08:12:12;;;;;;;58.30;29.13;;;;;;;-145.18;100.00;46681.88;5032522;28;20103;-75
2022/12/05 08:14:37;;;;;;;64.80;29.63;;;;;;;-145.18;100.00;46683.84;5032041;28;20041;-75
2022/12/05 08:17:03;;;;;;;58.27;29.50;;;;;;;-145.18;100.00;46683.84;5014339;28;20056;-75
2022/12/05 08:19:29;;;;;;;61.27;29.07;;;;;;;-145.18;100.00;46685.78;4997073;28;20057;-75
2022/12/05 08:21:54;;;;;;;65.00;29.47;;;;;;;-145.18;100.00;46687.75;5032089;28;20445;-75
2022/12/05 08:24:19;;;;;;;68.37;30.57;;;;;;;-145.18;100.00;46679.94;5031750;28;20029;-75
2022/12/05 08:26:45;;;;;;;64.80;29.17;;;;;;;-145.18;100.00;46691.66;5032042;28;20088;-75
2022/12/05 08:29:13;;;;;;;60.90;28.80;;;;;;;-145.18;100.00;46681.88;5031907;28;20041;-75
2022/12/05 08:31:46;;;;;;;65.30;30.33;;;;;;;-145.18;100.00;46679.94;5031861;28;20040;-75
2022/12/05 08:34:12;;;;;;;61.23;28.20;;;;;;;-145.18;100.00;46683.84;5031748;28;20306;-75
2022/12/05 08:36:38;;;;;;;63.20;30.33;;;;;;;-145.18;100.00;46681.88;5031994;28;20286;-75
2022/12/05 08:39:05;;;;;;;60.57;29.00;;;;;;;-145.18;100.00;46683.84;5031467;28;20293;-75
2022/12/05 08:41:31;;;;;;;57.33;29.03;;;;;;;-145.18;100.00;46685.78;5031678;28;20026;-75
2022/12/05 08:43:58;;;;;;;59.13;29.03;;;;;;;-145.18;100.00;46689.69;5031483;28;20267;-75
2022/12/05 08:46:24;;;;;;;63.23;29.97;;;;;;;-145.18;100.00;46677.97;5013848;28;20045;-75
2022/12/05 08:48:50;;;;;;;63.33;30.07;;;;;;;-145.18;100.00;46687.75;5031316;28;20274;-75
2022/12/05 08:51:15;;;;;;;62.63;30.90;;;;;;;-145.18;100.00;46681.88;5031733;28;20298;-75
2022/12/05 08:53:41;;;;;;;58.60;29.30;;;;;;;-145.18;100.00;46681.88;5031073;28;20033;-75
2022/12/05 08:56:08;;;;;;;60.73;29.57;;;;;;;-145.18;100.00;46685.78;5031413;28;20401;-75
2022/12/05 08:58:34;;;;;;;59.63;28.47;;;;;;;-145.18;100.00;46681.88;5031428;28;20037;-75
2022/12/05 09:01:24;;;;;;;56.43;29.37;;;;;;;-145.18;100.00;46681.88;5031231;28;20339;-75
2022/12/05 09:03:49;;;;;;;56.70;28.73;;;;;;;-145.18;100.00;46683.84;5030883;28;20080;-75
2022/12/05 09:06:21;;;;;;;52.80;27.67;;;;;;;-145.18;100.00;46681.88;5031242;28;20303;-75
2022/12/05 09:08:47;;;;;;;58.93;28.50;;;;;;;-145.18;100.00;46679.94;5030703;28;20537;-75
2022/12/05 09:11:16;;;;;;;61.60;29.67;;;;;;;-145.18;100.00;46679.94;5031158;28;20298;-75
2022/12/05 09:13:42;;;;;;;55.53;28.97;;;;;;;-145.18;100.00;46685.78;5030883;28;20350;-75
2022/12/05 09:16:09;;;;;;;55.37;28.70;;;;;;;-145.18;100.00;46685.78;5030998;28;20361;-75
2022/12/05 09:18:35;;;;;;;60.70;30.17;;;;;;;-145.18;100.00;46676.03;5030764;28;20128;-75
2022/12/05 09:21:16;;;;;;;63.43;30.47;;;;;;;-145.18;100.00;46679.94;5030844;28;20835;-75
2022/12/05 09:23:41;;;;;;;62.83;29.90;;;;;;;-145.18;100.00;46687.75;5030620;28;20029;-75
2022/12/05 09:26:10;;;;;;;53.03;27.67;;;;;;;-145.18;100.00;46677.97;5013275;28;20389;-75
2022/12/05 09:28:37;;;;;;;58.63;27.43;;;;;;;-145.18;100.00;46683.84;5030581;28;20430;-75
2022/12/05 09:31:04;;;;;;;61.30;27.87;;;;;;;-145.18;100.00;46683.84;5030045;28;20295;-75
2022/12/05 09:33:31;;;;;;;59.37;29.67;;;;;;;-145.18;100.00;46687.75;5030499;28;20642;-75
2022/12/05 09:35:57;;;;;;;60.97;28.33;;;;;;;-145.18;100.00;46689.69;5030709;28;20294;-74
2022/12/05 09:38:23;;;;;;;63.00;29.80;;;;;;;-145.18;100.00;46679.94;5030518;28;20313;-74
2022/12/05 09:41:13;;;;;;;56.70;28.30;;;;;;;-145.18;100.00;46685.78;5030443;28;20041;-74
2022/12/05 09:43:48;;;;;;;63.50;30.20;;;;;;;-145.18;100.00;46685.78;5030341;28;20429;-75
2022/12/05 09:46:42;;;;;;;64.15;29.75;;;;;;;-145.18;100.00;46681.88;5030626;28;20271;-75
2022/12/05 09:49:10;;;;;;;58.70;28.30;;;;;;;-145.18;100.00;46683.84;5030515;28;20429;-75
2022/12/05 09:51:42;;;;;;;57.10;28.33;;;;;;;-145.18;100.00;46685.78;5030413;28;20393;-74
2022/12/05 09:54:10;;;;;;;55.83;27.07;;;;;;;-145.18;100.00;46693.59;5030304;28;20604;-75
2022/12/05 09:56:42;;;;;;;60.83;29.03;;;;;;;-145.18;100.00;46687.75;5030436;28;20294;-75
2022/12/05 09:59:14;;;;;;;59.93;28.13;;;;;;;-145.18;100.00;46693.59;5030253;28;20646;-75
2022/12/05 10:01:46;;;;;;;53.30;27.57;;;;;;;-145.18;100.00;46687.75;5030369;28;20959;-75
2022/12/05 10:04:44;;;;;;;59.13;28.37;;;;;;;-145.18;100.00;46687.75;5029927;28;20298;-75
2022/12/05 10:07:44;;;;;;;59.00;29.47;;;;;;;-145.18;100.00;46685.78;5030439;28;20258;-75
2022/12/05 10:10:42;;;;;;;62.67;28.90;;;;;;;-145.18;100.00;46683.84;5030041;28;20259;-74
2022/12/05 10:13:17;;;;;;;58.20;28.40;;;;;;;-145.18;100.00;46691.66;5030137;28;20275;-75
2022/12/05 10:15:51;;;;;;;60.67;29.23;;;;;;;-145.18;100.00;46695.56;5029918;28;20806;-74
2022/12/05 10:18:29;;;;;;;63.70;29.27;;;;;;;-145.18;100.00;46699.47;5029741;28;20292;-74
2022/12/05 10:21:04;;;;;;;54.43;26.60;;;;;;;-145.18;100.00;46691.66;5019922;28;20277;-74
2022/12/05 10:23:48;;;;;;;59.70;29.00;;;;;;;-145.18;100.00;46693.59;5010271;28;20279;-74
2022/12/05 10:26:15;;;;;;;62.03;27.13;;;;;;;-145.18;100.00;46689.69;5010242;28;20038;-74
2022/12/05 10:28:50;;;;;;;59.23;27.67;;;;;;;-145.18;100.00;46701.41;5009809;28;20769;-74
2022/12/05 10:31:20;;;;;;;62.70;27.80;;;;;;;-145.18;100.00;46685.78;5010270;28;20803;-74
2022/12/05 10:33:56;;;;;;;67.47;28.37;;;;;;;-145.18;100.00;46685.78;5009756;28;20731;-74
2022/12/05 10:36:23;;;;;;;65.33;27.87;;;;;;;-145.18;100.00;46699.47;5018941;28;20318;-74
2022/12/05 10:38:49;;;;;;;62.93;28.60;;;;;;;-145.18;100.00;46685.78;5013310;28;20275;-74
2022/12/05 10:41:16;;;;;;;63.10;27.80;;;;;;;-145.18;100.00;46683.84;5025479;28;20293;-74
2022/12/05 10:43:43;;;;;;;56.97;27.33;;;;;;;-145.18;100.00;46691.66;5031616;28;20279;-74
2022/12/05 10:46:10;;;;;;;61.10;26.90;;;;;;;-145.18;100.00;46689.69;5019927;28;20271;-74
2022/12/05 10:48:39;;;;;;;55.73;26.77;;;;;;;-145.18;100.00;46685.78;5013584;28;20656;-74
2022/12/05 10:51:05;;;;;;;53.70;27.70;;;;;;;-145.18;100.00;46699.47;5013793;28;20291;-74
2022/12/05 10:53:39;;;;;;;54.50;26.80;;;;;;;-145.18;100.00;46685.78;5021786;28;20275;-74
2022/12/05 10:56:44;;;;;;;55.57;27.20;;;;;;;-145.18;100.00;46689.69;5023841;28;20350;-74
2022/12/05 10:59:13;;;;;;;52.13;26.70;;;;;;;-145.18;100.00;46687.75;5033442;28;20265;-74
2022/12/05 11:01:47;;;;;;;54.80;25.80;;;;;;;-145.18;100.00;46689.69;5030420;28;20271;-74
2022/12/05 11:04:22;;;;;;;53.17;25.17;;;;;;;-145.18;100.00;46693.59;5017444;28;20335;-74
2022/12/05 11:06:54;;;;;;;53.00;26.43;;;;;;;-145.18;100.00;46681.88;5013662;28;20030;-74
2022/12/05 11:09:28;;;;;;;51.70;25.13;;;;;;;-145.18;100.00;46683.84;5013497;28;20636;-74
2022/12/05 11:12:03;;;;;;;47.23;24.50;;;;;;;-145.18;100.00;46681.88;5013429;28;20830;-74
2022/12/05 11:14:30;;;;;;;52.07;25.43;;;;;;;-145.18;100.00;46687.75;5013951;28;20263;-74